sensor_id;sensor_type;location;lat;lon;timestamp;temperature;humidity
7163;DHT22;3623;47.098;15.446;2022-10-14T00:01:42;11.80;99.90
7163;DHT22;3623;47.098;15.446;2022-10-14T00:04:09;11.80;99.90
7163;DHT22;3623;47.098;15.446;2022-10-14T00:06:37;11.80;99.90
7163;DHT22;3623;47.098;15.446;2022-10-14T00:09:05;11.70;99.90
7163;DHT22;3623;47.098;15.446;2022-10-14T00:11:35;11.70;99.90
7163;DHT22;3623;47.098;15.446;2022-10-14T00:14:05;11.60;99.90
7163;DHT22;3623;47.098;15.446;2022-10-14T00:16:34;11.60;99.90
7163;DHT22;3623;47.098;15.446;2022-10-14T00:19:02;11.60;99.90
7163;DHT22;3623;47.098;15.446;2022-10-14T00:21:32;11.60;99.90
7163;DHT22;3623;47.098;15.446;2022-10-14T00:23:59;11.50;99.90
7163;DHT22;3623;47.098;15.446;2022-10-14T00:26:28;11.60;99.90
7163;DHT22;3623;47.098;15.446;2022-10-14T00:28:59;11.60;99.90
7163;DHT22;3623;47.098;15.446;2022-10-14T00:31:26;11.50;99.90
7163;DHT22;3623;47.098;15.446;2022-10-14T00:33:53;11.50;99.90
7163;DHT22;3623;47.098;15.446;2022-10-14T00:36:22;11.40;99.90
7163;DHT22;3623;47.098;15.446;2022-10-14T00:38:50;11.40;99.90
7163;DHT22;3623;47.098;15.446;2022-10-14T00:41:20;11.40;99.90
7163;DHT22;3623;47.098;15.446;2022-10-14T00:43:53;11.30;99.90
7163;DHT22;3623;47.098;15.446;2022-10-14T00:46:22;11.30;99.90
7163;DHT22;3623;47.098;15.446;2022-10-14T00:48:50;11.30;99.90
7163;DHT22;3623;47.098;15.446;2022-10-14T00:51:18;11.20;99.90
7163;DHT22;3623;47.098;15.446;2022-10-14T00:53:45;11.20;99.90
7163;DHT22;3623;47.098;15.446;2022-10-14T00:56:15;11.20;99.90
7163;DHT22;3623;47.098;15.446;2022-10-14T00:58:43;11.10;99.90
7163;DHT22;3623;47.098;15.446;2022-10-14T01:01:10;11.10;99.90
7163;DHT22;3623;47.098;15.446;2022-10-14T01:03:40;11.00;99.90
7163;DHT22;3623;47.098;15.446;2022-10-14T01:06:16;11.00;99.90
7163;DHT22;3623;47.098;15.446;2022-10-14T01:08:48;11.00;99.90
7163;DHT22;3623;47.098;15.446;2022-10-14T01:11:23;10.90;99.90
7163;DHT22;3623;47.098;15.446;2022-10-14T01:14:02;11.00;99.90
7163;DHT22;3623;47.098;15.446;2022-10-14T01:16:38;11.00;99.90
7163;DHT22;3623;47.098;15.446;2022-10-14T01:19:28;10.90;99.90
7163;DHT22;3623;47.098;15.446;2022-10-14T01:22:01;10.90;99.90
7163;DHT22;3623;47.098;15.446;2022-10-14T01:24:41;10.90;99.90
7163;DHT22;3623;47.098;15.446;2022-10-14T01:27:36;10.80;99.90
7163;DHT22;3623;47.098;15.446;2022-10-14T01:30:15;10.80;99.90
7163;DHT22;3623;47.098;15.446;2022-10-14T01:33:06;10.80;99.90
7163;DHT22;3623;47.098;15.446;2022-10-14T01:35:41;10.80;99.90
7163;DHT22;3623;47.098;15.446;2022-10-14T01:38:12;10.70;99.90
7163;DHT22;3623;47.098;15.446;2022-10-14T01:40:43;10.80;99.90
7163;DHT22;3623;47.098;15.446;2022-10-14T01:43:13;10.80;99.90
7163;DHT22;3623;47.098;15.446;2022-10-14T01:45:44;10.70;99.90
7163;DHT22;3623;47.098;15.446;2022-10-14T01:48:15;10.80;99.90
7163;DHT22;3623;47.098;15.446;2022-10-14T01:50:46;10.80;99.90
7163;DHT22;3623;47.098;15.446;2022-10-14T01:53:17;10.80;99.90
7163;DHT22;3623;47.098;15.446;2022-10-14T01:55:47;10.70;99.90
7163;DHT22;3623;47.098;15.446;2022-10-14T01:58:17;10.70;99.90
7163;DHT22;3623;47.098;15.446;2022-10-14T02:00:46;10.60;99.90
7163;DHT22;3623;47.098;15.446;2022-10-14T02:03:13;10.60;99.90
7163;DHT22;3623;47.098;15.446;2022-10-14T02:05:44;10.60;99.90
7163;DHT22;3623;47.098;15.446;2022-10-14T02:08:15;10.50;99.90
7163;DHT22;3623;47.098;15.446;2022-10-14T02:10:59;10.50;99.90
7163;DHT22;3623;47.098;15.446;2022-10-14T02:13:37;10.50;99.90
7163;DHT22;3623;47.098;15.446;2022-10-14T02:16:15;10.40;99.90
7163;DHT22;3623;47.098;15.446;2022-10-14T02:18:47;10.40;99.90
7163;DHT22;3623;47.098;15.446;2022-10-14T02:21:21;10.40;99.90
7163;DHT22;3623;47.098;15.446;2022-10-14T02:23:53;10.40;99.90
7163;DHT22;3623;47.098;15.446;2022-10-14T02:26:24;10.40;99.90
7163;DHT22;3623;47.098;15.446;2022-10-14T02:28:54;10.40;99.90
7163;DHT22;3623;47.098;15.446;2022-10-14T02:31:25;10.30;99.90
7163;DHT22;3623;47.098;15.446;2022-10-14T02:33:56;10.30;99.90
7163;DHT22;3623;47.098;15.446;2022-10-14T02:36:25;10.20;99.90
7163;DHT22;3623;47.098;15.446;2022-10-14T02:38:54;10.20;99.90
7163;DHT22;3623;47.098;15.446;2022-10-14T02:41:24;10.20;99.90
7163;DHT22;3623;47.098;15.446;2022-10-14T02:43:53;10.20;99.90
7163;DHT22;3623;47.098;15.446;2022-10-14T02:46:21;10.10;99.90
7163;DHT22;3623;47.098;15.446;2022-10-14T02:48:50;10.10;99.90
7163;DHT22;3623;47.098;15.446;2022-10-14T02:51:17;10.10;99.90
7163;DHT22;3623;47.098;15.446;2022-10-14T02:53:44;10.10;99.90
7163;DHT22;3623;47.098;15.446;2022-10-14T02:56:12;10.10;99.90
7163;DHT22;3623;47.098;15.446;2022-10-14T02:58:39;10.00;99.90
7163;DHT22;3623;47.098;15.446;2022-10-14T03:01:07;10.10;99.90
7163;DHT22;3623;47.098;15.446;2022-10-14T03:03:34;10.10;99.90
7163;DHT22;3623;47.098;15.446;2022-10-14T03:06:02;10.10;99.90
7163;DHT22;3623;47.098;15.446;2022-10-14T03:08:29;10.00;99.90
7163;DHT22;3623;47.098;15.446;2022-10-14T03:10:56;10.00;99.90
7163;DHT22;3623;47.098;15.446;2022-10-14T03:13:23;10.00;99.90
7163;DHT22;3623;47.098;15.446;2022-10-14T03:15:50;10.00;99.90
7163;DHT22;3623;47.098;15.446;2022-10-14T03:18:17;9.90;99.90
7163;DHT22;3623;47.098;15.446;2022-10-14T03:20:45;9.90;99.90
7163;DHT22;3623;47.098;15.446;2022-10-14T03:23:13;9.90;99.90
7163;DHT22;3623;47.098;15.446;2022-10-14T03:25:42;9.90;99.90
7163;DHT22;3623;47.098;15.446;2022-10-14T03:28:09;9.90;99.90
7163;DHT22;3623;47.098;15.446;2022-10-14T03:30:37;9.90;99.90
7163;DHT22;3623;47.098;15.446;2022-10-14T03:33:04;9.90;99.90
7163;DHT22;3623;47.098;15.446;2022-10-14T03:35:31;9.90;99.90
7163;DHT22;3623;47.098;15.446;2022-10-14T03:37:58;9.90;99.90
7163;DHT22;3623;47.098;15.446;2022-10-14T03:40:29;10.00;99.90
7163;DHT22;3623;47.098;15.446;2022-10-14T03:42:57;9.90;99.90
7163;DHT22;3623;47.098;15.446;2022-10-14T03:45:25;9.90;99.90
7163;DHT22;3623;47.098;15.446;2022-10-14T03:47:53;9.90;99.90
7163;DHT22;3623;47.098;15.446;2022-10-14T03:50:20;9.90;99.90
7163;DHT22;3623;47.098;15.446;2022-10-14T03:52:47;9.90;99.90
7163;DHT22;3623;47.098;15.446;2022-10-14T03:55:14;9.90;99.90
7163;DHT22;3623;47.098;15.446;2022-10-14T03:57:43;9.80;99.90
7163;DHT22;3623;47.098;15.446;2022-10-14T04:00:11;9.80;99.90
7163;DHT22;3623;47.098;15.446;2022-10-14T04:02:38;9.80;99.90
7163;DHT22;3623;47.098;15.446;2022-10-14T04:05:05;9.70;99.90
7163;DHT22;3623;47.098;15.446;2022-10-14T04:07:32;9.80;99.90
7163;DHT22;3623;47.098;15.446;2022-10-14T04:09:59;9.70;99.90
7163;DHT22;3623;47.098;15.446;2022-10-14T04:12:26;9.70;99.90
7163;DHT22;3623;47.098;15.446;2022-10-14T04:14:55;9.60;99.90
7163;DHT22;3623;47.098;15.446;2022-10-14T04:17:22;9.70;99.90
7163;DHT22;3623;47.098;15.446;2022-10-14T04:19:50;9.70;99.90
7163;DHT22;3623;47.098;15.446;2022-10-14T04:22:17;9.70;99.90
7163;DHT22;3623;47.098;15.446;2022-10-14T04:24:45;9.70;99.90
7163;DHT22;3623;47.098;15.446;2022-10-14T04:27:12;9.60;99.90
7163;DHT22;3623;47.098;15.446;2022-10-14T04:29:39;9.60;99.90
7163;DHT22;3623;47.098;15.446;2022-10-14T04:32:07;9.60;99.90
7163;DHT22;3623;47.098;15.446;2022-10-14T04:34:34;9.60;99.90
7163;DHT22;3623;47.098;15.446;2022-10-14T04:37:02;9.60;99.90
7163;DHT22;3623;47.098;15.446;2022-10-14T04:39:29;9.50;99.90
7163;DHT22;3623;47.098;15.446;2022-10-14T04:41:56;9.50;99.90
7163;DHT22;3623;47.098;15.446;2022-10-14T04:44:23;9.50;99.90
7163;DHT22;3623;47.098;15.446;2022-10-14T04:46:50;9.50;99.90
7163;DHT22;3623;47.098;15.446;2022-10-14T04:49:18;9.50;99.90
7163;DHT22;3623;47.098;15.446;2022-10-14T04:51:45;9.50;99.90
7163;DHT22;3623;47.098;15.446;2022-10-14T04:54:12;9.40;99.90
7163;DHT22;3623;47.098;15.446;2022-10-14T04:56:39;9.40;99.90
7163;DHT22;3623;47.098;15.446;2022-10-14T04:59:06;9.40;99.90
7163;DHT22;3623;47.098;15.446;2022-10-14T05:01:33;9.40;99.90
7163;DHT22;3623;47.098;15.446;2022-10-14T05:04:00;9.40;99.90
7163;DHT22;3623;47.098;15.446;2022-10-14T05:06:31;9.40;99.90
7163;DHT22;3623;47.098;15.446;2022-10-14T05:08:58;9.40;99.90
7163;DHT22;3623;47.098;15.446;2022-10-14T05:11:25;9.40;99.90
7163;DHT22;3623;47.098;15.446;2022-10-14T05:13:52;9.40;99.90
7163;DHT22;3623;47.098;15.446;2022-10-14T05:16:19;9.40;99.90
7163;DHT22;3623;47.098;15.446;2022-10-14T05:18:47;9.40;99.90
7163;DHT22;3623;47.098;15.446;2022-10-14T05:21:14;9.30;99.90
7163;DHT22;3623;47.098;15.446;2022-10-14T05:23:43;9.30;99.90
7163;DHT22;3623;47.098;15.446;2022-10-14T05:26:10;9.40;99.90
7163;DHT22;3623;47.098;15.446;2022-10-14T05:28:37;9.40;99.90
7163;DHT22;3623;47.098;15.446;2022-10-14T05:31:04;9.40;99.90
7163;DHT22;3623;47.098;15.446;2022-10-14T05:33:31;9.40;99.90
7163;DHT22;3623;47.098;15.446;2022-10-14T05:35:59;9.40;99.90
7163;DHT22;3623;47.098;15.446;2022-10-14T05:38:26;9.40;99.90
7163;DHT22;3623;47.098;15.446;2022-10-14T05:40:56;9.40;99.90
7163;DHT22;3623;47.098;15.446;2022-10-14T05:43:24;9.40;99.90
7163;DHT22;3623;47.098;15.446;2022-10-14T05:45:51;9.50;99.90
7163;DHT22;3623;47.098;15.446;2022-10-14T05:48:18;9.50;99.90
7163;DHT22;3623;47.098;15.446;2022-10-14T05:50:45;9.50;99.90
7163;DHT22;3623;47.098;15.446;2022-10-14T05:53:12;9.50;99.90
7163;DHT22;3623;47.098;15.446;2022-10-14T05:55:39;9.50;99.90
7163;DHT22;3623;47.098;15.446;2022-10-14T05:58:08;9.50;99.90
7163;DHT22;3623;47.098;15.446;2022-10-14T06:00:35;9.60;99.90
7163;DHT22;3623;47.098;15.446;2022-10-14T06:03:03;9.70;99.90
7163;DHT22;3623;47.098;15.446;2022-10-14T06:05:34;9.60;99.90
7163;DHT22;3623;47.098;15.446;2022-10-14T06:08:02;9.60;99.90
7163;DHT22;3623;47.098;15.446;2022-10-14T06:10:29;9.60;99.90
7163;DHT22;3623;47.098;15.446;2022-10-14T06:12:56;9.70;99.90
7163;DHT22;3623;47.098;15.446;2022-10-14T06:15:25;9.70;99.90
7163;DHT22;3623;47.098;15.446;2022-10-14T06:17:53;9.70;99.90
7163;DHT22;3623;47.098;15.446;2022-10-14T06:20:20;9.70;99.90
7163;DHT22;3623;47.098;15.446;2022-10-14T06:22:47;9.70;99.90
7163;DHT22;3623;47.098;15.446;2022-10-14T06:25:14;9.80;99.90
7163;DHT22;3623;47.098;15.446;2022-10-14T06:27:41;9.90;99.90
7163;DHT22;3623;47.098;15.446;2022-10-14T06:30:10;9.90;99.90
7163;DHT22;3623;47.098;15.446;2022-10-14T06:32:38;10.00;99.90
7163;DHT22;3623;47.098;15.446;2022-10-14T06:35:06;10.00;99.90
7163;DHT22;3623;47.098;15.446;2022-10-14T06:37:33;10.00;99.90
7163;DHT22;3623;47.098;15.446;2022-10-14T06:40:03;10.10;99.90
7163;DHT22;3623;47.098;15.446;2022-10-14T06:42:32;10.10;99.90
7163;DHT22;3623;47.098;15.446;2022-10-14T06:45:00;10.20;99.90
7163;DHT22;3623;47.098;15.446;2022-10-14T06:47:27;10.20;99.90
7163;DHT22;3623;47.098;15.446;2022-10-14T06:49:55;10.30;99.90
7163;DHT22;3623;47.098;15.446;2022-10-14T06:52:23;10.30;99.90
7163;DHT22;3623;47.098;15.446;2022-10-14T06:54:50;10.30;99.90
7163;DHT22;3623;47.098;15.446;2022-10-14T06:57:17;10.40;99.90
7163;DHT22;3623;47.098;15.446;2022-10-14T06:59:44;10.40;99.90
7163;DHT22;3623;47.098;15.446;2022-10-14T07:02:11;10.50;99.90
7163;DHT22;3623;47.098;15.446;2022-10-14T07:04:38;10.50;99.90
7163;DHT22;3623;47.098;15.446;2022-10-14T07:07:07;10.60;99.90
7163;DHT22;3623;47.098;15.446;2022-10-14T07:09:35;10.60;99.90
7163;DHT22;3623;47.098;15.446;2022-10-14T07:12:02;10.70;99.90
7163;DHT22;3623;47.098;15.446;2022-10-14T07:14:29;10.70;99.90
7163;DHT22;3623;47.098;15.446;2022-10-14T07:16:56;10.70;99.90
7163;DHT22;3623;47.098;15.446;2022-10-14T07:19:23;10.70;99.90
7163;DHT22;3623;47.098;15.446;2022-10-14T07:21:50;10.80;99.90
7163;DHT22;3623;47.098;15.446;2022-10-14T07:24:19;10.70;99.90
7163;DHT22;3623;47.098;15.446;2022-10-14T07:26:46;11.00;99.90
7163;DHT22;3623;47.098;15.446;2022-10-14T07:29:13;11.10;99.90
7163;DHT22;3623;47.098;15.446;2022-10-14T07:31:40;11.30;99.90
7163;DHT22;3623;47.098;15.446;2022-10-14T07:34:07;11.40;99.90
7163;DHT22;3623;47.098;15.446;2022-10-14T07:36:34;11.50;99.90
7163;DHT22;3623;47.098;15.446;2022-10-14T07:39:02;11.50;99.90
7163;DHT22;3623;47.098;15.446;2022-10-14T07:41:32;11.60;99.90
7163;DHT22;3623;47.098;15.446;2022-10-14T07:44:01;11.70;99.90
7163;DHT22;3623;47.098;15.446;2022-10-14T07:46:32;11.80;99.90
7163;DHT22;3623;47.098;15.446;2022-10-14T07:49:01;11.90;99.90
7163;DHT22;3623;47.098;15.446;2022-10-14T07:51:29;12.00;99.90
7163;DHT22;3623;47.098;15.446;2022-10-14T07:53:58;12.10;99.90
7163;DHT22;3623;47.098;15.446;2022-10-14T07:56:26;12.20;99.90
7163;DHT22;3623;47.098;15.446;2022-10-14T07:58:56;12.30;99.90
7163;DHT22;3623;47.098;15.446;2022-10-14T08:01:24;12.40;99.90
7163;DHT22;3623;47.098;15.446;2022-10-14T08:03:52;12.40;99.90
7163;DHT22;3623;47.098;15.446;2022-10-14T08:06:19;12.50;99.90
7163;DHT22;3623;47.098;15.446;2022-10-14T08:08:47;12.50;99.90
7163;DHT22;3623;47.098;15.446;2022-10-14T08:11:15;12.60;99.90
7163;DHT22;3623;47.098;15.446;2022-10-14T08:13:43;12.70;99.90
7163;DHT22;3623;47.098;15.446;2022-10-14T08:16:14;12.80;99.90
7163;DHT22;3623;47.098;15.446;2022-10-14T08:18:42;12.90;99.90
7163;DHT22;3623;47.098;15.446;2022-10-14T08:21:09;13.00;99.90
7163;DHT22;3623;47.098;15.446;2022-10-14T08:23:36;13.20;99.90
7163;DHT22;3623;47.098;15.446;2022-10-14T08:26:03;13.30;99.90
7163;DHT22;3623;47.098;15.446;2022-10-14T08:28:30;13.50;99.90
7163;DHT22;3623;47.098;15.446;2022-10-14T08:30:57;13.70;99.90
7163;DHT22;3623;47.098;15.446;2022-10-14T08:33:26;13.80;99.90
7163;DHT22;3623;47.098;15.446;2022-10-14T08:35:53;14.00;99.90
7163;DHT22;3623;47.098;15.446;2022-10-14T08:38:20;14.10;99.90
7163;DHT22;3623;47.098;15.446;2022-10-14T08:40:58;14.40;99.90
7163;DHT22;3623;47.098;15.446;2022-10-14T08:43:30;15.20;99.90
7163;DHT22;3623;47.098;15.446;2022-10-14T08:46:04;15.80;99.90
7163;DHT22;3623;47.098;15.446;2022-10-14T08:48:34;16.40;99.90
7163;DHT22;3623;47.098;15.446;2022-10-14T08:51:06;16.50;99.90
7163;DHT22;3623;47.098;15.446;2022-10-14T08:53:36;16.10;99.90
7163;DHT22;3623;47.098;15.446;2022-10-14T08:56:07;15.70;99.90
7163;DHT22;3623;47.098;15.446;2022-10-14T08:58:36;15.30;99.90
7163;DHT22;3623;47.098;15.446;2022-10-14T09:01:13;15.20;99.90
7163;DHT22;3623;47.098;15.446;2022-10-14T09:03:43;15.40;99.90
7163;DHT22;3623;47.098;15.446;2022-10-14T09:06:14;15.20;99.90
7163;DHT22;3623;47.098;15.446;2022-10-14T09:08:46;15.30;99.90
7163;DHT22;3623;47.098;15.446;2022-10-14T09:11:17;15.40;99.90
7163;DHT22;3623;47.098;15.446;2022-10-14T09:13:46;15.40;99.90
7163;DHT22;3623;47.098;15.446;2022-10-14T09:16:17;15.40;99.90
7163;DHT22;3623;47.098;15.446;2022-10-14T09:18:49;15.40;99.90
7163;DHT22;3623;47.098;15.446;2022-10-14T09:21:28;15.50;99.90
7163;DHT22;3623;47.098;15.446;2022-10-14T09:24:01;15.40;99.90
7163;DHT22;3623;47.098;15.446;2022-10-14T09:26:38;15.60;99.90
7163;DHT22;3623;47.098;15.446;2022-10-14T09:29:20;15.40;99.90
7163;DHT22;3623;47.098;15.446;2022-10-14T09:31:49;15.60;99.90
7163;DHT22;3623;47.098;15.446;2022-10-14T09:34:27;15.70;99.90
7163;DHT22;3623;47.098;15.446;2022-10-14T09:36:57;15.90;99.90
7163;DHT22;3623;47.098;15.446;2022-10-14T09:39:27;16.00;99.90
7163;DHT22;3623;47.098;15.446;2022-10-14T09:41:56;16.00;99.90
7163;DHT22;3623;47.098;15.446;2022-10-14T09:44:24;16.10;99.90
7163;DHT22;3623;47.098;15.446;2022-10-14T09:46:54;16.20;99.90
7163;DHT22;3623;47.098;15.446;2022-10-14T09:49:32;16.40;99.90
7163;DHT22;3623;47.098;15.446;2022-10-14T09:52:02;16.60;99.90
7163;DHT22;3623;47.098;15.446;2022-10-14T09:54:30;16.70;99.90
7163;DHT22;3623;47.098;15.446;2022-10-14T09:57:01;16.70;99.90
7163;DHT22;3623;47.098;15.446;2022-10-14T09:59:28;16.80;99.90
7163;DHT22;3623;47.098;15.446;2022-10-14T10:01:57;16.70;99.90
7163;DHT22;3623;47.098;15.446;2022-10-14T10:04:34;16.90;99.90
7163;DHT22;3623;47.098;15.446;2022-10-14T10:07:03;17.30;99.90
7163;DHT22;3623;47.098;15.446;2022-10-14T10:09:32;17.20;99.90
7163;DHT22;3623;47.098;15.446;2022-10-14T10:11:59;17.50;99.90
7163;DHT22;3623;47.098;15.446;2022-10-14T10:14:28;18.10;99.90
7163;DHT22;3623;47.098;15.446;2022-10-14T10:17:16;18.30;99.90
7163;DHT22;3623;47.098;15.446;2022-10-14T10:19:46;18.20;99.90
7163;DHT22;3623;47.098;15.446;2022-10-14T10:22:21;18.10;99.90
7163;DHT22;3623;47.098;15.446;2022-10-14T10:24:49;18.10;99.90
7163;DHT22;3623;47.098;15.446;2022-10-14T10:27:22;18.40;99.90
7163;DHT22;3623;47.098;15.446;2022-10-14T10:29:50;18.80;99.90
7163;DHT22;3623;47.098;15.446;2022-10-14T10:32:23;19.20;99.90
7163;DHT22;3623;47.098;15.446;2022-10-14T10:35:06;19.30;99.90
7163;DHT22;3623;47.098;15.446;2022-10-14T10:37:43;19.10;99.90
7163;DHT22;3623;47.098;15.446;2022-10-14T10:40:37;18.90;99.90
7163;DHT22;3623;47.098;15.446;2022-10-14T10:43:32;18.50;99.90
7163;DHT22;3623;47.098;15.446;2022-10-14T10:46:13;18.00;99.90
7163;DHT22;3623;47.098;15.446;2022-10-14T10:48:46;17.60;99.90
7163;DHT22;3623;47.098;15.446;2022-10-14T10:51:23;17.40;99.90
7163;DHT22;3623;47.098;15.446;2022-10-14T10:54:05;17.30;99.90
7163;DHT22;3623;47.098;15.446;2022-10-14T10:56:39;17.20;99.90
7163;DHT22;3623;47.098;15.446;2022-10-14T10:59:32;17.10;99.90
7163;DHT22;3623;47.098;15.446;2022-10-14T11:05:03;17.10;99.90
7163;DHT22;3623;47.098;15.446;2022-10-14T11:07:44;17.30;99.90
7163;DHT22;3623;47.098;15.446;2022-10-14T11:10:32;17.50;99.90
7163;DHT22;3623;47.098;15.446;2022-10-14T11:13:22;17.70;99.90
7163;DHT22;3623;47.098;15.446;2022-10-14T11:15:56;18.30;99.90
7163;DHT22;3623;47.098;15.446;2022-10-14T11:18:31;18.80;99.90
7163;DHT22;3623;47.098;15.446;2022-10-14T11:21:08;18.70;99.90
7163;DHT22;3623;47.098;15.446;2022-10-14T11:23:47;18.50;99.90
7163;DHT22;3623;47.098;15.446;2022-10-14T11:26:32;18.90;99.90
7163;DHT22;3623;47.098;15.446;2022-10-14T11:29:16;19.20;99.90
7163;DHT22;3623;47.098;15.446;2022-10-14T11:31:50;18.60;99.90
7163;DHT22;3623;47.098;15.446;2022-10-14T11:34:34;18.30;99.90
7163;DHT22;3623;47.098;15.446;2022-10-14T11:37:12;18.30;99.90
7163;DHT22;3623;47.098;15.446;2022-10-14T11:39:47;18.10;99.90
7163;DHT22;3623;47.098;15.446;2022-10-14T11:42:25;17.70;99.90
7163;DHT22;3623;47.098;15.446;2022-10-14T11:45:05;17.30;99.90
7163;DHT22;3623;47.098;15.446;2022-10-14T11:47:34;17.00;99.90
7163;DHT22;3623;47.098;15.446;2022-10-14T11:50:13;16.90;99.90
7163;DHT22;3623;47.098;15.446;2022-10-14T11:52:45;16.90;99.90
7163;DHT22;3623;47.098;15.446;2022-10-14T11:55:18;16.90;99.90
7163;DHT22;3623;47.098;15.446;2022-10-14T11:57:49;16.90;99.90
7163;DHT22;3623;47.098;15.446;2022-10-14T12:03:10;17.00;99.90
7163;DHT22;3623;47.098;15.446;2022-10-14T12:05:40;17.00;99.90
7163;DHT22;3623;47.098;15.446;2022-10-14T12:08:18;17.10;99.90
7163;DHT22;3623;47.098;15.446;2022-10-14T12:10:52;17.30;99.90
7163;DHT22;3623;47.098;15.446;2022-10-14T12:13:26;17.50;99.90
7163;DHT22;3623;47.098;15.446;2022-10-14T12:15:55;18.90;99.90
7163;DHT22;3623;47.098;15.446;2022-10-14T12:18:23;20.80;99.90
7163;DHT22;3623;47.098;15.446;2022-10-14T12:20:55;22.60;99.90
7163;DHT22;3623;47.098;15.446;2022-10-14T12:23:30;24.20;99.90
7163;DHT22;3623;47.098;15.446;2022-10-14T12:26:05;24.80;99.90
7163;DHT22;3623;47.098;15.446;2022-10-14T12:28:34;24.90;99.90
7163;DHT22;3623;47.098;15.446;2022-10-14T12:31:22;24.50;99.90
7163;DHT22;3623;47.098;15.446;2022-10-14T12:34:16;24.60;99.90
7163;DHT22;3623;47.098;15.446;2022-10-14T12:36:50;24.80;99.90
7163;DHT22;3623;47.098;15.446;2022-10-14T12:39:27;25.40;99.90
7163;DHT22;3623;47.098;15.446;2022-10-14T12:42:01;25.40;99.90
7163;DHT22;3623;47.098;15.446;2022-10-14T12:44:33;25.90;99.90
7163;DHT22;3623;47.098;15.446;2022-10-14T12:47:02;26.30;99.90
7163;DHT22;3623;47.098;15.446;2022-10-14T12:49:36;25.80;99.90
7163;DHT22;3623;47.098;15.446;2022-10-14T12:52:05;25.30;99.90
7163;DHT22;3623;47.098;15.446;2022-10-14T12:54:34;25.00;99.90
7163;DHT22;3623;47.098;15.446;2022-10-14T12:57:14;24.30;99.90
7163;DHT22;3623;47.098;15.446;2022-10-14T12:59:48;23.90;99.90
7163;DHT22;3623;47.098;15.446;2022-10-14T13:02:19;23.20;99.90
7163;DHT22;3623;47.098;15.446;2022-10-14T13:04:52;22.50;99.90
7163;DHT22;3623;47.098;15.446;2022-10-14T13:07:44;22.80;99.90
7163;DHT22;3623;47.098;15.446;2022-10-14T13:13:49;22.30;99.90
7163;DHT22;3623;47.098;15.446;2022-10-14T13:19:41;20.90;99.90
7163;DHT22;3623;47.098;15.446;2022-10-14T13:22:37;20.70;99.90
7163;DHT22;3623;47.098;15.446;2022-10-14T13:25:17;19.90;99.90
7163;DHT22;3623;47.098;15.446;2022-10-14T13:30:38;19.60;99.90
7163;DHT22;3623;47.098;15.446;2022-10-14T13:33:16;19.20;99.90
7163;DHT22;3623;47.098;15.446;2022-10-14T13:35:51;19.00;99.90
7163;DHT22;3623;47.098;15.446;2022-10-14T13:38:22;19.00;99.90
7163;DHT22;3623;47.098;15.446;2022-10-14T13:40:51;18.90;99.90
7163;DHT22;3623;47.098;15.446;2022-10-14T13:43:22;18.80;99.90
7163;DHT22;3623;47.098;15.446;2022-10-14T13:45:56;18.60;99.90
7163;DHT22;3623;47.098;15.446;2022-10-14T13:48:28;18.60;99.90
7163;DHT22;3623;47.098;15.446;2022-10-14T13:51:06;18.50;99.90
7163;DHT22;3623;47.098;15.446;2022-10-14T13:53:48;18.40;99.90
7163;DHT22;3623;47.098;15.446;2022-10-14T13:56:21;18.40;99.90
7163;DHT22;3623;47.098;15.446;2022-10-14T13:58:49;18.60;99.90
7163;DHT22;3623;47.098;15.446;2022-10-14T14:01:20;18.50;99.90
7163;DHT22;3623;47.098;15.446;2022-10-14T14:03:51;18.40;99.90
7163;DHT22;3623;47.098;15.446;2022-10-14T14:06:21;18.40;99.90
7163;DHT22;3623;47.098;15.446;2022-10-14T14:08:52;18.20;99.90
7163;DHT22;3623;47.098;15.446;2022-10-14T14:11:22;18.00;99.90
7163;DHT22;3623;47.098;15.446;2022-10-14T14:13:54;18.00;99.90
7163;DHT22;3623;47.098;15.446;2022-10-14T14:16:26;17.80;99.90
7163;DHT22;3623;47.098;15.446;2022-10-14T14:18:54;17.90;99.90
7163;DHT22;3623;47.098;15.446;2022-10-14T14:21:23;17.90;99.90
7163;DHT22;3623;47.098;15.446;2022-10-14T14:23:51;17.90;99.90
7163;DHT22;3623;47.098;15.446;2022-10-14T14:26:19;17.80;99.90
7163;DHT22;3623;47.098;15.446;2022-10-14T14:28:47;17.70;99.90
7163;DHT22;3623;47.098;15.446;2022-10-14T14:31:16;17.40;99.90
7163;DHT22;3623;47.098;15.446;2022-10-14T14:33:45;17.30;99.90
7163;DHT22;3623;47.098;15.446;2022-10-14T14:36:14;17.20;99.90
7163;DHT22;3623;47.098;15.446;2022-10-14T14:38:52;17.10;99.90
7163;DHT22;3623;47.098;15.446;2022-10-14T14:41:21;17.00;99.90
7163;DHT22;3623;47.098;15.446;2022-10-14T14:43:50;16.90;99.90
7163;DHT22;3623;47.098;15.446;2022-10-14T14:46:19;16.80;99.90
7163;DHT22;3623;47.098;15.446;2022-10-14T14:48:51;16.70;99.90
7163;DHT22;3623;47.098;15.446;2022-10-14T14:51:19;16.80;99.90
7163;DHT22;3623;47.098;15.446;2022-10-14T14:53:50;16.80;99.90
7163;DHT22;3623;47.098;15.446;2022-10-14T14:56:22;16.80;99.90
7163;DHT22;3623;47.098;15.446;2022-10-14T14:58:51;16.70;99.90
7163;DHT22;3623;47.098;15.446;2022-10-14T15:01:22;16.60;99.90
7163;DHT22;3623;47.098;15.446;2022-10-14T15:03:54;16.40;99.90
7163;DHT22;3623;47.098;15.446;2022-10-14T15:06:23;16.40;99.90
7163;DHT22;3623;47.098;15.446;2022-10-14T15:08:52;16.40;99.90
7163;DHT22;3623;47.098;15.446;2022-10-14T15:11:20;16.40;99.90
7163;DHT22;3623;47.098;15.446;2022-10-14T15:13:49;16.40;99.90
7163;DHT22;3623;47.098;15.446;2022-10-14T15:16:35;16.30;99.90
7163;DHT22;3623;47.098;15.446;2022-10-14T15:19:37;16.30;99.90
7163;DHT22;3623;47.098;15.446;2022-10-14T15:22:17;16.30;99.90
7163;DHT22;3623;47.098;15.446;2022-10-14T15:24:57;16.20;99.90
7163;DHT22;3623;47.098;15.446;2022-10-14T15:27:49;16.10;99.90
7163;DHT22;3623;47.098;15.446;2022-10-14T15:30:22;15.90;99.90
7163;DHT22;3623;47.098;15.446;2022-10-14T15:32:53;15.80;99.90
7163;DHT22;3623;47.098;15.446;2022-10-14T15:35:23;15.70;99.90
7163;DHT22;3623;47.098;15.446;2022-10-14T15:37:50;15.60;99.90
7163;DHT22;3623;47.098;15.446;2022-10-14T15:40:20;15.40;99.90
7163;DHT22;3623;47.098;15.446;2022-10-14T15:42:49;15.30;99.90
7163;DHT22;3623;47.098;15.446;2022-10-14T15:45:17;15.20;99.90
7163;DHT22;3623;47.098;15.446;2022-10-14T15:47:45;15.10;99.90
7163;DHT22;3623;47.098;15.446;2022-10-14T15:50:16;15.10;99.90
7163;DHT22;3623;47.098;15.446;2022-10-14T15:52:45;15.10;99.90
7163;DHT22;3623;47.098;15.446;2022-10-14T15:55:15;15.20;99.90
7163;DHT22;3623;47.098;15.446;2022-10-14T15:57:44;15.10;99.90
7163;DHT22;3623;47.098;15.446;2022-10-14T16:00:15;15.10;99.90
7163;DHT22;3623;47.098;15.446;2022-10-14T16:02:44;15.00;99.90
7163;DHT22;3623;47.098;15.446;2022-10-14T16:05:12;15.00;99.90
7163;DHT22;3623;47.098;15.446;2022-10-14T16:07:40;14.90;99.90
7163;DHT22;3623;47.098;15.446;2022-10-14T16:10:12;14.80;99.90
7163;DHT22;3623;47.098;15.446;2022-10-14T16:12:39;14.70;99.90
7163;DHT22;3623;47.098;15.446;2022-10-14T16:15:18;14.60;99.90
7163;DHT22;3623;47.098;15.446;2022-10-14T16:17:46;14.60;99.90
7163;DHT22;3623;47.098;15.446;2022-10-14T16:20:14;14.60;99.90
7163;DHT22;3623;47.098;15.446;2022-10-14T16:22:41;15.00;99.90
7163;DHT22;3623;47.098;15.446;2022-10-14T16:25:17;14.40;99.90
7163;DHT22;3623;47.098;15.446;2022-10-14T16:27:45;14.30;99.90
7163;DHT22;3623;47.098;15.446;2022-10-14T16:30:12;14.30;99.90